createdAt,value
2023-01-23T00:00:01.009Z,68.75
2023-01-23T00:01:05.877Z,68.82
2023-01-23T00:02:09.713Z,68.88
2023-01-23T00:03:12.112Z,68.80
2023-01-23T00:04:14.557Z,68.80
2023-01-23T00:05:16.807Z,68.98
2023-01-23T00:06:19.045Z,68.66
2023-01-23T00:07:21.250Z,68.77
2023-01-23T00:08:23.472Z,68.76
2023-01-23T00:09:25.694Z,68.69
2023-01-23T00:10:27.889Z,68.65
2023-01-23T00:11:30.920Z,68.84
2023-01-23T00:12:36.095Z,68.75
2023-01-23T00:13:38.597Z,68.87
2023-01-23T00:14:40.786Z,68.77
2023-01-23T00:15:43.146Z,68.84
2023-01-23T00:16:45.440Z,68.81
2023-01-23T00:17:48.529Z,68.72
2023-01-23T00:18:51.990Z,68.92
2023-01-23T00:19:55.237Z,68.81
2023-01-23T00:20:58.555Z,68.90
2023-01-23T00:22:01.183Z,68.88
2023-01-23T00:23:03.510Z,68.95
2023-01-23T00:24:06.215Z,68.85
2023-01-23T00:25:08.615Z,68.90
2023-01-23T00:26:15.797Z,68.99
2023-01-23T00:27:20.003Z,68.97
2023-01-23T00:28:22.171Z,69.05
2023-01-23T00:29:24.314Z,68.95
2023-01-23T00:30:26.579Z,69.00
2023-01-23T00:31:37.585Z,69.01
2023-01-23T00:32:40.223Z,69.06
2023-01-23T00:33:43.916Z,69.04
2023-01-23T00:34:47.036Z,68.95
2023-01-23T00:35:55.324Z,68.94
2023-01-23T00:36:58.444Z,69.10
2023-01-23T00:38:00.753Z,68.91
2023-01-23T00:39:04.950Z,69.01
2023-01-23T00:40:08.128Z,68.97
2023-01-23T00:41:10.537Z,69.01
2023-01-23T00:42:12.812Z,69.02
2023-01-23T00:43:15.046Z,69.12
2023-01-23T00:44:17.670Z,69.10
2023-01-23T00:45:19.900Z,69.20
2023-01-23T00:46:23.141Z,69.07
2023-01-23T00:47:25.528Z,68.96
2023-01-23T00:48:28.003Z,69.17
2023-01-23T00:49:30.634Z,69.22
2023-01-23T00:50:34.397Z,69.16
2023-01-23T00:51:36.747Z,69.18
2023-01-23T00:52:38.932Z,69.18
2023-01-23T00:53:41.188Z,69.17
2023-01-23T00:54:43.390Z,69.26
2023-01-23T00:55:45.783Z,69.27
2023-01-23T00:56:48.153Z,69.31
2023-01-23T00:57:50.589Z,69.33
2023-01-23T00:58:52.955Z,69.17
2023-01-23T00:59:55.222Z,69.40
2023-01-23T01:00:57.662Z,69.35
2023-01-23T01:02:00.229Z,69.42
2023-01-23T01:03:02.535Z,69.37
2023-01-23T01:04:05.045Z,69.29
2023-01-23T01:05:07.495Z,69.22
2023-01-23T01:06:10.379Z,69.35
2023-01-23T01:07:12.591Z,69.30
2023-01-23T01:08:15.546Z,69.30
2023-01-23T01:09:17.724Z,69.29
2023-01-23T01:10:20.353Z,69.23
2023-01-23T01:11:23.083Z,69.23
2023-01-23T01:12:25.259Z,69.11
2023-01-23T01:13:28.511Z,69.31
2023-01-23T01:14:33.382Z,69.40
2023-01-23T01:15:36.051Z,69.21
2023-01-23T01:16:38.565Z,69.40
2023-01-23T01:17:42.310Z,69.43
2023-01-23T01:18:44.742Z,69.37
2023-01-23T01:19:46.974Z,69.29
2023-01-23T01:20:49.879Z,69.28
2023-01-23T01:21:52.204Z,69.37
2023-01-23T01:23:00.644Z,69.31
2023-01-23T01:24:02.939Z,69.33
2023-01-23T01:25:05.709Z,69.31
2023-01-23T01:26:08.696Z,69.48
2023-01-23T01:27:11.018Z,69.50
2023-01-23T01:28:16.039Z,69.45
2023-01-23T01:29:18.261Z,69.46
2023-01-23T01:30:20.691Z,69.46
2023-01-23T01:31:23.723Z,69.59
2023-01-23T01:32:25.961Z,69.38
2023-01-23T01:33:28.493Z,69.31
2023-01-23T01:34:31.711Z,69.53
2023-01-23T01:35:34.401Z,69.49
2023-01-23T01:36:36.579Z,69.41
2023-01-23T01:37:41.981Z,69.47
2023-01-23T01:38:44.784Z,69.34
2023-01-23T01:39:47.025Z,69.41
2023-01-23T01:40:49.664Z,69.43
2023-01-23T01:41:51.952Z,69.48
2023-01-23T01:43:00.170Z,69.35
2023-01-23T01:44:04.596Z,69.48
2023-01-23T01:45:07.708Z,69.34
2023-01-23T01:46:17.982Z,69.50
2023-01-23T01:47:21.760Z,69.46
2023-01-23T01:48:46.139Z,69.68
2023-01-23T01:49:50.034Z,69.57
2023-01-23T01:50:54.039Z,69.51
2023-01-23T01:52:02.971Z,69.63
2023-01-23T01:53:05.869Z,69.67
2023-01-23T01:54:28.512Z,69.73
2023-01-23T01:55:31.782Z,69.64
2023-01-23T01:56:41.366Z,69.75
2023-01-23T01:57:45.739Z,69.57
2023-01-23T01:58:52.248Z,69.80
2023-01-23T02:00:00.477Z,69.68
2023-01-23T02:01:02.809Z,69.71
2023-01-23T02:02:11.668Z,69.74
2023-01-23T02:03:15.441Z,69.68
2023-01-23T02:04:20.291Z,69.82
2023-01-23T02:05:26.463Z,69.71
2023-01-23T02:06:30.709Z,69.68
2023-01-23T02:07:41.071Z,69.68
2023-01-23T02:08:51.474Z,69.75
2023-01-23T02:09:54.453Z,69.76
2023-01-23T02:10:57.233Z,69.96
2023-01-23T02:12:01.781Z,69.79
2023-01-23T02:13:21.228Z,69.97
2023-01-23T02:14:25.904Z,69.96
2023-01-23T02:15:28.184Z,69.98
2023-01-23T02:16:40.382Z,69.98
2023-01-23T02:17:44.301Z,69.85
2023-01-23T02:18:49.768Z,69.91
2023-01-23T02:20:18.947Z,69.85
2023-01-23T02:21:25.377Z,69.87
2023-01-23T02:22:45.701Z,70.01
2023-01-23T02:23:56.583Z,70.07
2023-01-23T02:25:27.903Z,69.96
2023-01-23T02:26:38.779Z,69.99
2023-01-23T02:27:41.008Z,70.03
2023-01-23T02:28:46.617Z,70.04
2023-01-23T02:29:56.344Z,70.01
2023-01-23T02:31:01.672Z,70.01
2023-01-23T02:32:05.995Z,69.96
2023-01-23T02:33:25.091Z,70.01
2023-01-23T02:34:30.175Z,69.95
2023-01-23T02:35:39.127Z,70.07
2023-01-23T02:36:48.295Z,69.96
2023-01-23T02:37:55.388Z,69.95
2023-01-23T02:39:09.408Z,70.00
2023-01-23T02:40:13.378Z,69.97
2023-01-23T02:41:18.936Z,70.07
2023-01-23T02:42:22.916Z,70.15
2023-01-23T02:43:35.297Z,70.09
2023-01-23T02:44:41.229Z,69.96
2023-01-23T02:45:44.337Z,70.03
2023-01-23T02:46:48.247Z,70.25
2023-01-23T02:47:50.391Z,70.28
2023-01-23T02:48:52.979Z,70.26
2023-01-23T02:49:55.174Z,70.05
2023-01-23T02:50:57.725Z,70.15
2023-01-23T02:52:00.430Z,70.13
2023-01-23T02:53:02.763Z,70.10
2023-01-23T02:54:05.247Z,70.06
2023-01-23T02:55:08.780Z,70.12
2023-01-23T02:56:11.162Z,70.01
2023-01-23T02:57:14.534Z,70.11
2023-01-23T02:58:35.484Z,70.15
2023-01-23T02:59:56.133Z,70.11
2023-01-23T03:00:59.378Z,70.14
2023-01-23T03:02:05.571Z,70.16
2023-01-23T03:03:09.367Z,70.02
2023-01-23T03:04:11.548Z,70.01
2023-01-23T03:05:13.980Z,70.13
2023-01-23T03:06:16.177Z,70.05
2023-01-23T03:07:18.499Z,70.06
2023-01-23T03:08:20.752Z,70.17
2023-01-23T03:09:23.324Z,70.00
2023-01-23T03:10:25.541Z,70.04
2023-01-23T03:11:28.970Z,70.08
2023-01-23T03:12:31.700Z,70.14
2023-01-23T03:13:33.910Z,70.04
2023-01-23T03:14:36.324Z,70.02
2023-01-23T03:15:39.358Z,70.12
2023-01-23T03:16:43.137Z,69.92
2023-01-23T03:17:48.141Z,70.02
2023-01-23T03:18:54.832Z,70.10
2023-01-23T03:19:58.314Z,70.06
2023-01-23T03:21:05.431Z,70.05
2023-01-23T03:22:07.752Z,70.06
2023-01-23T03:23:10.296Z,70.07
2023-01-23T03:24:14.066Z,70.08
2023-01-23T03:25:17.299Z,70.14
2023-01-23T03:26:19.660Z,70.13
2023-01-23T03:27:23.726Z,70.09
2023-01-23T03:28:48.211Z,70.15
2023-01-23T03:30:09.584Z,70.08
2023-01-23T03:31:13.074Z,70.12
2023-01-23T03:32:16.215Z,70.06
2023-01-23T03:33:19.809Z,70.11
2023-01-23T03:34:22.968Z,70.11
2023-01-23T03:35:25.253Z,70.05
2023-01-23T03:36:29.911Z,70.09
2023-01-23T03:37:34.030Z,70.06
2023-01-23T03:38:59.998Z,70.11
2023-01-23T03:40:22.133Z,70.14
2023-01-23T03:41:27.216Z,69.96
2023-01-23T03:42:34.890Z,70.06
2023-01-23T03:43:38.683Z,70.06
2023-01-23T03:44:41.321Z,69.97
2023-01-23T03:45:45.853Z,70.04
2023-01-23T03:46:53.180Z,69.96
2023-01-23T03:47:55.395Z,70.00
2023-01-23T03:48:57.586Z,69.99
2023-01-23T03:50:02.169Z,70.08
2023-01-23T03:51:09.986Z,70.05
2023-01-23T03:52:12.751Z,70.04
2023-01-23T03:53:15.034Z,70.01
2023-01-23T03:54:17.278Z,69.86
2023-01-23T03:55:20.319Z,70.00
2023-01-23T03:56:22.825Z,69.94
2023-01-23T03:57:25.796Z,70.01
2023-01-23T03:58:39.942Z,70.00
2023-01-23T03:59:42.162Z,69.95
2023-01-23T04:00:44.837Z,69.93
2023-01-23T04:01:48.164Z,69.87
2023-01-23T04:02:50.610Z,69.99
2023-01-23T04:03:53.207Z,69.93
2023-01-23T04:04:55.458Z,69.86
2023-01-23T04:06:02.209Z,69.83
2023-01-23T04:07:06.431Z,69.75
2023-01-23T04:08:09.790Z,69.80
2023-01-23T04:09:13.072Z,69.88
2023-01-23T04:10:16.281Z,69.94
2023-01-23T04:11:23.170Z,69.92
2023-01-23T04:12:25.442Z,69.98
2023-01-23T04:13:27.732Z,69.92
2023-01-23T04:14:37.660Z,69.95
2023-01-23T04:15:40.045Z,69.73
2023-01-23T04:16:42.816Z,69.93
2023-01-23T04:17:45.177Z,69.90
2023-01-23T04:18:49.598Z,69.84
2023-01-23T04:19:51.872Z,69.88
2023-01-23T04:20:54.689Z,69.86
2023-01-23T04:21:56.927Z,69.69
2023-01-23T04:22:59.150Z,69.78
2023-01-23T04:24:03.253Z,69.74
2023-01-23T04:25:06.800Z,69.73
2023-01-23T04:26:09.046Z,69.76
2023-01-23T04:27:11.420Z,69.80
2023-01-23T04:28:13.830Z,69.78
2023-01-23T04:29:17.176Z,69.72
2023-01-23T04:30:20.254Z,69.81
2023-01-23T04:31:25.244Z,69.93
2023-01-23T04:32:28.166Z,69.77
2023-01-23T04:33:30.404Z,69.64
2023-01-23T04:34:33.973Z,69.66
2023-01-23T04:35:36.686Z,69.78
2023-01-23T04:36:39.045Z,69.70
2023-01-23T04:37:41.232Z,69.71
2023-01-23T04:38:43.930Z,69.68
2023-01-23T04:39:55.175Z,69.78
2023-01-23T04:40:58.726Z,69.73
2023-01-23T04:42:01.104Z,69.70
2023-01-23T04:43:26.106Z,69.71
2023-01-23T04:44:29.522Z,69.73
2023-01-23T04:45:56.382Z,69.74
2023-01-23T04:47:21.420Z,69.70
2023-01-23T04:48:28.518Z,69.92
2023-01-23T04:49:30.707Z,69.74
2023-01-23T04:50:33.905Z,69.64
2023-01-23T04:51:37.901Z,69.70
2023-01-23T04:52:40.089Z,69.82
2023-01-23T04:53:42.250Z,69.75
2023-01-23T04:54:44.524Z,69.82
2023-01-23T04:55:49.349Z,69.91
2023-01-23T04:56:52.492Z,69.80
2023-01-23T04:57:56.166Z,69.76
2023-01-23T04:59:00.757Z,69.79
2023-01-23T05:00:03.536Z,69.83
2023-01-23T05:01:08.437Z,69.86
2023-01-23T05:02:11.892Z,69.76
2023-01-23T05:03:18.050Z,69.85
2023-01-23T05:04:22.282Z,70.00
2023-01-23T05:05:25.459Z,69.85
2023-01-23T05:06:31.969Z,69.92
2023-01-23T05:07:34.878Z,70.02
2023-01-23T05:08:52.273Z,69.92
2023-01-23T05:10:18.427Z,69.80
2023-01-23T05:11:20.829Z,69.85
2023-01-23T05:12:23.032Z,69.89
2023-01-23T05:13:25.212Z,69.88
2023-01-23T05:14:28.365Z,69.97
2023-01-23T05:15:31.000Z,69.80
2023-01-23T05:16:33.300Z,69.99
2023-01-23T05:18:02.254Z,69.95
2023-01-23T05:19:06.513Z,69.84
2023-01-23T05:20:11.846Z,69.83
2023-01-23T05:21:14.822Z,69.88
2023-01-23T05:22:18.140Z,69.81
2023-01-23T05:23:20.412Z,69.90
2023-01-23T05:24:25.796Z,69.89
2023-01-23T05:25:30.512Z,69.95
2023-01-23T05:26:35.169Z,69.84
2023-01-23T05:27:37.459Z,69.92
2023-01-23T05:28:39.639Z,69.75
2023-01-23T05:29:44.575Z,69.79
2023-01-23T05:30:51.757Z,69.76
2023-01-23T05:32:06.712Z,69.94
2023-01-23T05:33:14.564Z,69.84
2023-01-23T05:34:18.015Z,70.01
2023-01-23T05:35:22.868Z,69.88
2023-01-23T05:36:25.161Z,69.76
2023-01-23T05:37:27.635Z,69.83
2023-01-23T05:38:34.658Z,69.89
2023-01-23T05:39:40.078Z,69.80
2023-01-23T05:40:43.102Z,69.83
2023-01-23T05:41:51.503Z,69.87
2023-01-23T05:43:15.314Z,69.85
2023-01-23T05:44:32.924Z,69.86
2023-01-23T05:45:41.470Z,69.82
2023-01-23T05:46:50.864Z,69.79
2023-01-23T05:47:55.918Z,69.70
2023-01-23T05:48:58.304Z,69.83
2023-01-23T05:50:01.342Z,69.91
2023-01-23T05:51:09.816Z,69.85
2023-01-23T05:52:13.031Z,69.74
2023-01-23T05:53:15.232Z,69.81
2023-01-23T05:54:17.633Z,69.79
2023-01-23T05:55:21.353Z,69.66
2023-01-23T05:56:28.043Z,69.66
2023-01-23T05:57:50.207Z,69.81
2023-01-23T05:59:27.993Z,69.83
2023-01-23T06:00:38.463Z,69.77
2023-01-23T06:02:16.202Z,69.87
2023-01-23T06:03:46.453Z,69.70
2023-01-23T06:05:24.124Z,69.84
2023-01-23T06:06:37.003Z,69.84
2023-01-23T06:07:39.469Z,69.83
2023-01-23T06:08:44.042Z,69.95
2023-01-23T06:09:47.244Z,69.92
2023-01-23T06:10:50.961Z,69.90
2023-01-23T06:11:54.470Z,69.92
2023-01-23T06:12:58.940Z,70.02
2023-01-23T06:14:01.152Z,69.85
2023-01-23T06:15:03.643Z,69.88
2023-01-23T06:16:08.509Z,70.02
2023-01-23T06:17:13.310Z,70.03
2023-01-23T06:18:15.556Z,69.93
2023-01-23T06:19:17.745Z,69.97
2023-01-23T06:20:20.181Z,69.89
2023-01-23T06:21:22.573Z,70.10
2023-01-23T06:22:25.031Z,70.12
2023-01-23T06:23:38.294Z,70.08
2023-01-23T06:24:40.681Z,70.06
2023-01-23T06:25:42.943Z,70.00
2023-01-23T06:26:49.738Z,69.91
2023-01-23T06:29:10.512Z,69.95
2023-01-23T06:30:13.951Z,69.98
2023-01-23T06:31:18.133Z,69.93
2023-01-23T06:32:29.443Z,70.01
2023-01-23T06:33:32.502Z,69.91
2023-01-23T06:34:37.318Z,70.01
2023-01-23T06:35:40.883Z,69.85
2023-01-23T06:36:46.250Z,69.86
2023-01-23T06:37:48.862Z,69.92
2023-01-23T06:38:52.745Z,69.96
2023-01-23T06:40:00.191Z,69.84
2023-01-23T06:41:02.516Z,69.97
2023-01-23T06:42:10.440Z,69.80
2023-01-23T06:43:17.737Z,69.94
2023-01-23T06:44:20.195Z,69.88
2023-01-23T06:45:22.730Z,69.96
2023-01-23T06:46:26.027Z,69.91
2023-01-23T06:47:29.441Z,69.90
2023-01-23T06:48:35.957Z,69.82
2023-01-23T06:49:38.506Z,69.77
2023-01-23T06:50:42.452Z,69.78
2023-01-23T06:51:44.733Z,69.68
2023-01-23T06:52:47.895Z,69.73
2023-01-23T06:53:50.222Z,69.86
2023-01-23T06:54:52.472Z,69.74
2023-01-23T06:55:59.113Z,69.82
2023-01-23T06:57:04.506Z,69.71
2023-01-23T06:58:07.579Z,69.70
2023-01-23T06:59:09.865Z,69.87
2023-01-23T07:00:12.955Z,69.84
2023-01-23T07:01:17.828Z,69.66
2023-01-23T07:02:49.627Z,69.68
2023-01-23T07:03:53.093Z,69.82
2023-01-23T07:04:55.412Z,69.69
2023-01-23T07:06:02.319Z,69.67
2023-01-23T07:07:05.146Z,69.88
2023-01-23T07:08:08.875Z,69.91
2023-01-23T07:09:11.731Z,69.87
2023-01-23T07:10:14.476Z,69.79
2023-01-23T07:11:16.915Z,69.78
2023-01-23T07:12:19.193Z,69.65
2023-01-23T07:13:21.933Z,69.79
2023-01-23T07:14:27.307Z,69.81
2023-01-23T07:15:29.978Z,69.79
2023-01-23T07:16:33.014Z,69.70
2023-01-23T07:17:35.527Z,69.71
2023-01-23T07:18:37.838Z,69.78
2023-01-23T07:19:42.946Z,69.72
2023-01-23T07:20:50.084Z,69.74
2023-01-23T07:21:52.404Z,69.82
2023-01-23T07:22:56.070Z,69.92
2023-01-23T07:23:58.335Z,69.75
2023-01-23T07:25:00.493Z,69.83
2023-01-23T07:26:07.482Z,69.82
2023-01-23T07:27:09.741Z,69.85
2023-01-23T07:28:12.174Z,69.83
2023-01-23T07:29:14.533Z,69.75
2023-01-23T07:30:17.858Z,69.75
2023-01-23T07:31:20.360Z,69.75
2023-01-23T07:32:22.641Z,69.77
2023-01-23T07:33:25.035Z,69.76
2023-01-23T07:34:27.788Z,69.72
2023-01-23T07:35:33.001Z,69.79
2023-01-23T07:36:35.189Z,69.71
2023-01-23T07:37:37.412Z,69.64
2023-01-23T07:38:39.826Z,69.72
2023-01-23T07:39:42.069Z,69.70
2023-01-23T07:40:45.472Z,69.69
2023-01-23T07:41:47.728Z,69.68
2023-01-23T07:42:50.102Z,69.60
2023-01-23T07:43:52.430Z,69.70
2023-01-23T07:44:54.715Z,69.61
2023-01-23T07:46:00.347Z,69.55
2023-01-23T07:47:02.547Z,69.60
2023-01-23T07:48:07.830Z,69.59
2023-01-23T07:49:10.165Z,69.67
2023-01-23T07:50:13.302Z,69.72
2023-01-23T07:51:15.693Z,69.52
2023-01-23T07:52:17.947Z,69.68
2023-01-23T07:53:20.174Z,69.60
2023-01-23T07:54:22.390Z,69.46
2023-01-23T07:55:27.688Z,69.50
2023-01-23T07:56:29.908Z,69.58
2023-01-23T07:57:34.077Z,69.49
2023-01-23T07:58:36.375Z,69.59
2023-01-23T07:59:38.550Z,69.69
2023-01-23T08:00:42.135Z,69.55
2023-01-23T08:01:44.519Z,69.51
2023-01-23T08:02:46.728Z,69.50
2023-01-23T08:03:48.938Z,69.62
2023-01-23T08:04:51.242Z,69.49
2023-01-23T08:05:53.415Z,69.54
2023-01-23T08:06:55.712Z,69.53
2023-01-23T08:08:12.062Z,69.65
2023-01-23T08:09:14.707Z,69.55
2023-01-23T08:10:17.295Z,69.59
2023-01-23T08:11:19.666Z,69.64
2023-01-23T08:12:21.872Z,69.72
2023-01-23T08:13:24.144Z,69.56
2023-01-23T08:14:29.503Z,69.47
2023-01-23T08:15:31.726Z,69.47
2023-01-23T08:16:34.122Z,69.48
2023-01-23T08:17:36.649Z,69.54
2023-01-23T08:18:38.931Z,69.41
2023-01-23T08:19:41.172Z,69.48
2023-01-23T08:20:43.452Z,69.60
2023-01-23T08:21:46.421Z,69.48
2023-01-23T08:22:48.742Z,69.57
2023-01-23T08:23:51.113Z,69.58
2023-01-23T08:24:56.301Z,69.38
2023-01-23T08:26:01.000Z,69.39
2023-01-23T08:27:03.198Z,69.35
2023-01-23T08:28:05.379Z,69.35
2023-01-23T08:29:11.193Z,69.45
2023-01-23T08:30:16.085Z,69.43
2023-01-23T08:31:18.755Z,69.45
2023-01-23T08:32:23.764Z,69.43
2023-01-23T08:33:25.984Z,69.32
2023-01-23T08:34:28.331Z,69.25
2023-01-23T08:35:30.718Z,69.33
2023-01-23T08:36:33.068Z,69.25
2023-01-23T08:37:37.002Z,69.13
2023-01-23T08:38:39.493Z,69.20
2023-01-23T08:39:41.985Z,69.19
2023-01-23T08:40:44.228Z,69.21
2023-01-23T08:41:46.719Z,69.18
2023-01-23T08:42:48.871Z,69.05
2023-01-23T08:43:51.507Z,68.90
2023-01-23T08:44:54.181Z,69.00
2023-01-23T08:45:58.787Z,69.10
2023-01-23T08:47:03.331Z,69.05
2023-01-23T08:48:08.699Z,69.12
2023-01-23T08:49:11.440Z,69.21
2023-01-23T08:50:13.895Z,69.03
2023-01-23T08:51:16.350Z,69.15
2023-01-23T08:52:18.755Z,69.16
2023-01-23T08:53:21.075Z,69.11
2023-01-23T08:54:23.331Z,68.92
2023-01-23T08:55:25.545Z,68.92
2023-01-23T08:56:27.717Z,69.08
2023-01-23T08:57:29.936Z,69.01
2023-01-23T08:58:32.461Z,68.79
2023-01-23T08:59:34.701Z,68.72
2023-01-23T09:00:36.881Z,68.87
2023-01-23T09:01:39.263Z,68.69
2023-01-23T09:02:41.507Z,68.77
2023-01-23T09:03:44.132Z,68.59
2023-01-23T09:04:46.843Z,68.60
2023-01-23T09:05:49.034Z,68.79
2023-01-23T09:06:51.204Z,68.70
2023-01-23T09:07:53.539Z,68.70
2023-01-23T09:08:55.750Z,68.69
2023-01-23T09:09:57.913Z,68.81
2023-01-23T09:11:02.264Z,68.79
2023-01-23T09:12:04.695Z,68.79
2023-01-23T09:13:09.231Z,68.79
2023-01-23T09:14:11.551Z,68.77
2023-01-23T09:15:13.808Z,68.81
2023-01-23T09:16:16.931Z,68.85
2023-01-23T09:17:19.163Z,68.78
2023-01-23T09:18:22.979Z,68.98
2023-01-23T09:19:27.465Z,68.94
2023-01-23T09:20:29.678Z,68.81
2023-01-23T09:21:31.911Z,68.87
2023-01-23T09:22:34.105Z,68.83
2023-01-23T09:23:36.536Z,68.94
2023-01-23T09:24:38.707Z,68.92
2023-01-23T09:25:41.168Z,68.76
2023-01-23T09:26:43.777Z,68.82
2023-01-23T09:27:45.972Z,68.79
2023-01-23T09:28:48.175Z,68.65
2023-01-23T09:29:50.995Z,68.99
2023-01-23T09:30:53.247Z,68.90
2023-01-23T09:31:58.745Z,68.76
2023-01-23T09:33:03.897Z,68.95
2023-01-23T09:34:07.991Z,68.78
2023-01-23T09:35:10.753Z,68.67
2023-01-23T09:36:13.773Z,68.66
2023-01-23T09:37:17.014Z,68.73
2023-01-23T09:38:19.725Z,68.62
2023-01-23T09:39:22.176Z,68.62
2023-01-23T09:40:25.898Z,68.65
2023-01-23T09:41:29.302Z,68.74
2023-01-23T09:42:36.633Z,68.58
2023-01-23T09:44:11.706Z,68.71
2023-01-23T09:45:20.277Z,68.60
2023-01-23T09:46:27.846Z,68.70
2023-01-23T09:47:38.655Z,68.70
2023-01-23T09:49:08.239Z,68.63
2023-01-23T09:50:30.992Z,68.64
2023-01-23T09:52:04.079Z,68.69
2023-01-23T09:53:14.290Z,68.66
2023-01-23T09:54:29.966Z,68.70
2023-01-23T09:55:49.313Z,68.81
2023-01-23T09:56:52.628Z,68.64
2023-01-23T09:57:57.790Z,68.56
2023-01-23T09:59:11.700Z,68.48
2023-01-23T10:00:20.862Z,68.56
2023-01-23T10:01:35.617Z,68.57
2023-01-23T10:02:44.572Z,68.73
2023-01-23T10:03:46.887Z,68.56
2023-01-23T10:04:51.540Z,68.66
2023-01-23T10:06:17.796Z,68.69
2023-01-23T10:07:35.386Z,68.68
2023-01-23T10:09:08.364Z,68.80
2023-01-23T10:10:20.805Z,68.69
2023-01-23T10:11:38.638Z,68.59
2023-01-23T10:13:02.954Z,68.69
2023-01-23T10:14:47.325Z,68.78
2023-01-23T10:15:49.478Z,68.74
2023-01-23T10:17:07.174Z,68.69
2023-01-23T10:18:12.301Z,68.64
2023-01-23T10:19:52.070Z,68.70
2023-01-23T10:23:10.922Z,68.81
2023-01-23T10:24:40.034Z,68.80
2023-01-23T10:25:43.111Z,68.68
2023-01-23T10:26:46.760Z,68.57
2023-01-23T10:27:51.091Z,68.70
2023-01-23T10:29:19.033Z,68.49
2023-01-23T10:30:28.855Z,68.50
2023-01-23T10:31:38.779Z,68.51
2023-01-23T10:32:51.167Z,68.61
2023-01-23T10:34:05.868Z,68.64
2023-01-23T10:35:40.953Z,68.61
2023-01-23T10:36:56.863Z,68.53
2023-01-23T10:38:29.785Z,68.68
2023-01-23T10:39:44.388Z,68.55
2023-01-23T10:41:07.235Z,68.66
2023-01-23T10:42:21.250Z,68.50
2023-01-23T10:43:26.989Z,68.44
2023-01-23T10:44:29.673Z,68.37
2023-01-23T10:45:32.411Z,68.52
2023-01-23T10:46:42.803Z,68.41
2023-01-23T10:47:55.249Z,68.30
2023-01-23T10:49:00.205Z,68.36
2023-01-23T10:50:04.784Z,68.24
2023-01-23T10:51:28.561Z,68.27
2023-01-23T10:52:43.003Z,68.29
2023-01-23T10:53:45.175Z,68.21
2023-01-23T10:54:53.453Z,68.22
2023-01-23T10:55:59.105Z,68.09
2023-01-23T10:57:18.660Z,68.16
2023-01-23T10:58:29.908Z,68.01
2023-01-23T10:59:50.448Z,68.21
2023-01-23T11:00:53.387Z,68.04
2023-01-23T11:01:59.295Z,67.91
2023-01-23T11:03:20.408Z,67.92
2023-01-23T11:04:26.256Z,67.81
2023-01-23T11:05:53.117Z,67.68
2023-01-23T11:07:23.488Z,67.60
2023-01-23T11:08:30.485Z,67.72
2023-01-23T11:09:35.599Z,67.80
2023-01-23T11:10:40.716Z,67.84
2023-01-23T11:11:43.175Z,67.77
2023-01-23T11:12:55.764Z,67.88
2023-01-23T11:14:16.972Z,67.81
2023-01-23T11:15:34.314Z,67.75
2023-01-23T11:16:37.103Z,67.72
2023-01-23T11:17:41.909Z,67.72
2023-01-23T11:18:56.142Z,67.80
2023-01-23T11:19:59.939Z,67.74
2023-01-23T11:21:02.832Z,67.64
2023-01-23T11:22:23.151Z,67.73
2023-01-23T11:23:25.613Z,67.67
2023-01-23T11:24:40.766Z,67.81
2023-01-23T11:25:53.663Z,67.64
2023-01-23T11:27:06.397Z,67.61
2023-01-23T11:28:23.650Z,67.70
2023-01-23T11:29:27.932Z,67.61
2023-01-23T11:30:36.346Z,67.45
2023-01-23T11:33:01.923Z,67.53
2023-01-23T11:34:21.751Z,67.50
2023-01-23T11:35:38.070Z,67.37
2023-01-23T11:37:21.188Z,67.54
2023-01-23T11:38:30.904Z,67.40
2023-01-23T11:39:36.124Z,67.45
2023-01-23T11:40:38.351Z,67.36
2023-01-23T11:41:40.546Z,67.47
2023-01-23T11:42:43.551Z,67.62
2023-01-23T11:43:45.942Z,67.51
2023-01-23T11:44:48.380Z,67.45
2023-01-23T11:46:13.652Z,67.44
2023-01-23T11:47:49.237Z,67.54
2023-01-23T11:49:08.654Z,67.54
2023-01-23T11:50:49.985Z,67.42
2023-01-23T11:52:17.665Z,67.61
2023-01-23T11:53:58.206Z,67.63
2023-01-23T11:55:35.051Z,67.38
2023-01-23T11:56:56.375Z,67.42
2023-01-23T11:58:28.701Z,67.41
2023-01-23T12:00:18.945Z,67.35
2023-01-23T12:01:40.228Z,67.43
2023-01-23T12:03:00.776Z,67.41
2023-01-23T12:04:36.420Z,67.44
2023-01-23T12:08:07.999Z,67.31
2023-01-23T12:09:20.330Z,67.42
2023-01-23T12:11:01.542Z,67.41
2023-01-23T12:12:23.024Z,67.29
2023-01-23T12:13:39.446Z,67.36
2023-01-23T12:15:03.970Z,67.26
2023-01-23T12:16:45.311Z,67.46
2023-01-23T12:19:30.555Z,67.36
2023-01-23T12:20:43.599Z,67.52
2023-01-23T12:22:07.228Z,67.28
2023-01-23T12:23:36.466Z,67.33
2023-01-23T12:24:55.231Z,67.25
2023-01-23T12:26:12.163Z,67.34
2023-01-23T12:27:39.858Z,67.56
2023-01-23T12:29:13.851Z,67.35
2023-01-23T12:30:54.511Z,67.60
2023-01-23T12:32:15.931Z,67.48
2023-01-23T12:33:40.401Z,67.57
2023-01-23T12:35:02.353Z,67.34
2023-01-23T12:37:05.075Z,67.58
2023-01-23T12:38:15.595Z,67.54
2023-01-23T12:39:35.611Z,67.58
2023-01-23T12:40:45.708Z,67.71
2023-01-23T12:41:52.466Z,67.72
2023-01-23T12:43:30.975Z,67.80
2023-01-23T12:44:38.549Z,67.68
2023-01-23T12:45:49.370Z,67.76
2023-01-23T12:47:10.869Z,67.63
2023-01-23T12:48:19.835Z,67.57
2023-01-23T12:49:40.960Z,67.54
2023-01-23T12:51:08.848Z,67.64
2023-01-23T12:52:35.623Z,67.63
2023-01-23T12:53:39.835Z,67.66
2023-01-23T12:55:04.586Z,67.53
2023-01-23T12:56:37.760Z,67.61
2023-01-23T12:57:52.709Z,67.50
2023-01-23T12:59:27.634Z,67.43
2023-01-23T13:00:41.970Z,67.42
2023-01-23T13:02:17.793Z,67.52
2023-01-23T13:03:46.459Z,67.37
2023-01-23T13:05:16.100Z,67.46
2023-01-23T13:06:41.704Z,67.36
2023-01-23T13:08:03.574Z,67.48
2023-01-23T13:09:43.580Z,67.57
2023-01-23T13:11:29.557Z,67.40
2023-01-23T13:12:31.974Z,67.42
2023-01-23T13:13:34.576Z,67.35
2023-01-23T13:15:06.897Z,67.55
2023-01-23T13:16:17.553Z,67.33
2023-01-23T13:17:37.511Z,67.44
2023-01-23T13:18:58.954Z,67.49
2023-01-23T13:20:49.690Z,67.49
2023-01-23T13:22:28.674Z,67.51
2023-01-23T13:23:44.961Z,67.43
2023-01-23T13:25:08.684Z,67.43
2023-01-23T13:26:19.562Z,67.42
2023-01-23T13:27:34.442Z,67.35
2023-01-23T13:28:45.549Z,67.52
2023-01-23T13:29:50.225Z,67.41
2023-01-23T13:31:04.537Z,67.47
2023-01-23T13:32:23.454Z,67.55
2023-01-23T13:33:29.354Z,67.51
2023-01-23T13:34:31.462Z,67.73
2023-01-23T13:35:40.518Z,67.74
2023-01-23T13:36:44.226Z,67.78
2023-01-23T13:37:51.597Z,67.79
2023-01-23T13:39:19.774Z,67.78
2023-01-23T13:40:24.090Z,67.74
2023-01-23T13:41:31.087Z,67.85
2023-01-23T13:42:37.629Z,67.67
2023-01-23T13:44:19.065Z,67.72
2023-01-23T13:45:29.449Z,67.90
2023-01-23T14:20:19.637Z,68.41
2023-01-23T14:21:30.375Z,68.39
2023-01-23T14:22:36.032Z,68.43
2023-01-23T14:23:41.971Z,68.54
2023-01-23T14:24:46.815Z,68.49
2023-01-23T14:25:49.628Z,68.45
2023-01-23T14:27:02.470Z,68.56
2023-01-23T14:28:07.303Z,68.65
2023-01-23T14:29:26.784Z,68.63
2023-01-23T14:30:30.723Z,68.63
2023-01-23T14:31:35.875Z,68.56
2023-01-23T14:32:39.447Z,68.77
2023-01-23T14:33:45.595Z,68.70
2023-01-23T14:34:48.045Z,68.60
2023-01-23T14:35:52.326Z,68.64
2023-01-23T14:37:03.021Z,68.61
2023-01-23T14:38:08.272Z,68.74
2023-01-23T14:39:23.293Z,68.74
2023-01-23T14:40:30.609Z,68.82
2023-01-23T14:41:44.901Z,68.85
2023-01-23T14:42:57.242Z,68.81
2023-01-23T14:44:00.811Z,68.75
2023-01-23T14:45:03.257Z,68.74
2023-01-23T14:46:17.612Z,68.80
2023-01-23T14:47:34.627Z,68.79
2023-01-23T14:48:41.559Z,68.87
2023-01-23T14:49:46.131Z,68.73
2023-01-23T14:50:48.404Z,68.76
2023-01-23T14:52:02.379Z,68.67
2023-01-23T14:53:12.048Z,68.77
2023-01-23T14:54:23.309Z,68.62
2023-01-23T14:55:30.431Z,68.79
2023-01-23T14:56:36.205Z,68.81
2023-01-23T14:57:41.869Z,68.84
2023-01-23T14:58:46.827Z,68.78
2023-01-23T14:59:56.254Z,68.68
2023-01-23T15:01:01.108Z,68.48
2023-01-23T15:02:24.667Z,68.64
2023-01-23T15:03:44.628Z,68.65
2023-01-23T15:05:29.657Z,68.52
2023-01-23T15:06:35.050Z,68.44
2023-01-23T15:07:50.984Z,68.42
2023-01-23T15:08:53.934Z,68.46
2023-01-23T15:09:56.479Z,68.44
2023-01-23T15:11:00.782Z,68.32
2023-01-23T15:12:10.642Z,68.27
2023-01-23T15:13:19.448Z,68.24
2023-01-23T15:14:26.599Z,68.34
2023-01-23T15:15:33.777Z,68.37
2023-01-23T15:16:38.291Z,68.35
2023-01-23T15:17:45.127Z,68.29
2023-01-23T15:19:02.709Z,68.39